Time;durP1;ratioP1;P1;durP2;ratioP2;P2;SDS_P1;SDS_P2;PMS_P1;PMS_P2;Temp;Humidity;BMP_temperature;BMP_pressure;BME280_temperature;BME280_humidity;BME280_pressure;Samples;Min_cycle;Max_cycle;Signal;HPM_P1;HPM_P2
2023/09/27 00:00:11;;;;;;;4.15;2.78;;;12.80;99.90;;;;;;5036824;28;20112;-78
2023/09/27 00:02:42;;;;;;;4.57;2.63;;;12.80;99.90;;;;;;5045417;28;20393;-77
2023/09/27 00:05:10;;;;;;;;;;;12.70;99.90;;;;;;5034624;28;20026;-77
2023/09/27 00:07:37;;;;;;;3.88;2.88;;;12.70;99.90;;;;;;5034667;28;19954;-77
2023/09/27 00:10:05;;;;;;;5.45;3.13;;;12.60;99.90;;;;;;5033951;28;20025;-77
2023/09/27 00:12:32;;;;;;;5.78;2.85;;;12.60;99.90;;;;;;5034420;28;20104;-77
2023/09/27 00:14:57;;;;;;;4.70;2.92;;;12.50;99.90;;;;;;5040208;28;20033;-77
2023/09/27 00:17:23;;;;;;;7.82;4.05;;;12.40;99.90;;;;;;5041454;28;20056;-77
2023/09/27 00:19:49;;;;;;;5.97;3.47;;;12.40;99.90;;;;;;5022266;28;20397;-78
2023/09/27 00:22:16;;;;;;;6.07;3.17;;;12.30;99.90;;;;;;5055028;28;20025;-78
2023/09/27 00:24:42;;;;;;;4.25;2.78;;;12.30;99.90;;;;;;5054809;28;20483;-78
2023/09/27 00:27:10;;;;;;;3.75;2.50;;;12.40;99.90;;;;;;5054973;28;20013;-78
2023/09/27 00:29:36;;;;;;;3.55;2.38;;;12.30;99.90;;;;;;5055072;28;20017;-78
2023/09/27 00:32:02;;;;;;;3.60;2.55;;;12.30;99.90;;;;;;5033061;28;20025;-78
2023/09/27 00:34:28;;;;;;;3.35;2.20;;;12.20;99.90;;;;;;5040213;28;20048;-78
2023/09/27 00:36:53;;;;;;;3.10;2.20;;;12.20;99.90;;;;;;5042934;28;20034;-78
2023/09/27 00:39:19;;;;;;;4.35;2.05;;;12.10;99.90;;;;;;5040134;28;20038;-78
2023/09/27 00:41:45;;;;;;;5.70;2.80;;;12.10;99.90;;;;;;5021419;28;20040;-78
2023/09/27 00:44:10;;;;;;;7.35;2.78;;;12.10;99.90;;;;;;5020842;28;20029;-78
2023/09/27 00:46:37;;;;;;;3.42;2.25;;;12.00;99.90;;;;;;5038665;28;20068;-77
2023/09/27 00:49:04;;;;;;;3.72;2.35;;;12.00;99.90;;;;;;5037967;28;20169;-78
2023/09/27 00:51:30;;;;;;;5.35;2.42;;;12.00;99.90;;;;;;5039020;28;20048;-78
2023/09/27 00:53:56;;;;;;;4.57;2.80;;;12.00;99.90;;;;;;5020877;28;20083;-78
2023/09/27 00:56:23;;;;;;;4.15;2.13;;;12.00;99.90;;;;;;5039639;28;20018;-78
2023/09/27 00:58:50;;;;;;;3.38;2.30;;;12.00;99.90;;;;;;5022264;28;20029;-78
2023/09/27 01:01:16;;;;;;;4.85;2.47;;;11.90;99.90;;;;;;5039495;28;20500;-78
2023/09/27 01:03:42;;;;;;;5.25;2.58;;;11.90;99.90;;;;;;5039294;28;20040;-78
2023/09/27 01:06:08;;;;;;;4.32;2.83;;;11.90;99.90;;;;;;5039121;28;20033;-78
2023/09/27 01:08:34;;;;;;;3.85;2.75;;;11.90;99.90;;;;;;5039314;28;20045;-78
2023/09/27 01:11:03;;;;;;;4.03;2.30;;;11.80;99.90;;;;;;5039138;28;20470;-78
2023/09/27 01:13:29;;;;;;;5.35;3.33;;;11.80;99.90;;;;;;5039073;28;20034;-78
2023/09/27 01:15:55;;;;;;;5.40;2.90;;;11.70;99.90;;;;;;5044290;28;20025;-78
2023/09/27 01:18:20;;;;;;;5.07;2.63;;;11.70;99.90;;;;;;5044495;28;20104;-78
2023/09/27 01:20:46;;;;;;;4.10;2.80;;;11.70;99.90;;;;;;5049984;28;20029;-78
2023/09/27 01:23:12;;;;;;;4.63;2.72;;;11.70;99.90;;;;;;5049830;28;20030;-78
2023/09/27 01:25:38;;;;;;;3.90;2.70;;;11.70;99.90;;;;;;5048763;28;20083;-78
2023/09/27 01:28:06;;;;;;;5.15;2.92;;;11.60;99.90;;;;;;5041104;28;20036;-76
2023/09/27 01:30:32;;;;;;;5.22;2.88;;;11.70;99.90;;;;;;5032498;28;20029;-76
2023/09/27 01:33:10;;;;;;;4.00;2.72;;;11.70;99.90;;;;;;5009353;28;20029;-77
2023/09/27 01:35:38;;;;;;;4.40;2.90;;;11.70;99.90;;;;;;5033332;28;20030;-76
2023/09/27 01:38:06;;;;;;;4.22;2.40;;;11.70;99.90;;;;;;5017006;28;20374;-76
2023/09/27 01:40:35;;;;;;;5.68;2.83;;;11.70;99.90;;;;;;4999937;28;20052;-76
2023/09/27 01:43:02;;;;;;;6.05;2.97;;;11.70;99.90;;;;;;5017593;28;20045;-76
2023/09/27 01:45:29;;;;;;;6.57;3.05;;;11.70;99.90;;;;;;4999518;28;20030;-76
2023/09/27 01:47:55;;;;;;;5.57;3.15;;;11.80;99.90;;;;;;5016148;28;20022;-75
2023/09/27 01:50:24;;;;;;;9.27;3.10;;;11.80;99.90;;;;;;5030561;28;20033;-75
2023/09/27 01:52:56;;;;;;;6.47;3.55;;;11.70;99.90;;;;;;5016393;28;20022;-76
2023/09/27 01:55:23;;;;;;;8.23;3.38;;;11.70;99.90;;;;;;4998925;28;20052;-76
2023/09/27 01:57:49;;;;;;;7.00;3.63;;;11.70;99.90;;;;;;5016226;28;20114;-75
2023/09/27 02:00:17;;;;;;;8.88;4.40;;;11.70;99.90;;;;;;5016268;28;20105;-76
2023/09/27 02:02:44;;;;;;;5.65;3.40;;;11.70;99.90;;;;;;5025772;28;20026;-76
2023/09/27 02:05:10;;;;;;;7.63;3.55;;;11.80;99.90;;;;;;5017919;28;20025;-76
2023/09/27 02:07:38;;;;;;;7.85;3.35;;;11.70;99.90;;;;;;5018047;28;20026;-75
2023/09/27 02:10:05;;;;;;;8.32;3.08;;;11.70;99.90;;;;;;5036827;28;20014;-76
2023/09/27 02:12:30;;;;;;;5.45;3.88;;;11.70;99.90;;;;;;5019024;28;20549;-76
2023/09/27 02:14:56;;;;;;;5.30;3.30;;;11.80;99.90;;;;;;5036182;28;20072;-76
2023/09/27 02:17:22;;;;;;;4.53;3.10;;;11.70;99.90;;;;;;5035857;28;20026;-77
2023/09/27 02:19:47;;;;;;;6.88;3.13;;;11.70;99.90;;;;;;5018946;28;20440;-77
2023/09/27 02:22:13;;;;;;;6.65;3.20;;;11.70;99.90;;;;;;5016728;28;20481;-77
2023/09/27 02:24:39;;;;;;;5.95;3.25;;;11.70;99.90;;;;;;4997869;28;20037;-76
2023/09/27 02:27:05;;;;;;;7.95;3.78;;;11.70;99.90;;;;;;5030177;28;20167;-77
2023/09/27 02:29:32;;;;;;;9.18;3.78;;;11.70;99.90;;;;;;5000321;28;20112;-76
2023/09/27 02:31:58;;;;;;;6.85;3.70;;;11.70;99.90;;;;;;5017842;28;20051;-76
2023/09/27 02:34:25;;;;;;;8.98;4.03;;;11.70;99.90;;;;;;5017016;28;20033;-76
2023/09/27 02:36:50;;;;;;;7.63;4.50;;;11.70;99.90;;;;;;5005189;28;20030;-76
2023/09/27 02:39:16;;;;;;;7.38;4.28;;;11.70;99.90;;;;;;5030829;28;20053;-76
2023/09/27 02:41:42;;;;;;;9.05;4.55;;;11.70;99.90;;;;;;5015717;28;20057;-76
2023/09/27 02:44:07;;;;;;;9.48;4.95;;;11.80;99.90;;;;;;5033638;28;20428;-76
2023/09/27 02:46:33;;;;;;;11.13;4.97;;;11.80;99.90;;;;;;5000513;28;20032;-76
2023/09/27 02:48:59;;;;;;;11.15;5.50;;;11.80;99.90;;;;;;4998384;28;21905;-78
2023/09/27 02:51:24;;;;;;;9.48;5.65;;;11.70;99.90;;;;;;4981695;28;20025;-77
2023/09/27 02:53:50;;;;;;;13.00;5.68;;;11.70;99.90;;;;;;4981277;28;20084;-76
2023/09/27 02:56:17;;;;;;;11.77;6.22;;;11.80;99.90;;;;;;5015435;28;20034;-76
2023/09/27 02:58:44;;;;;;;12.43;6.57;;;11.80;99.90;;;;;;4982753;28;20105;-76
2023/09/27 03:01:11;;;;;;;12.00;6.35;;;11.80;99.90;;;;;;4997858;28;20113;-75
2023/09/27 03:03:38;;;;;;;9.55;5.40;;;11.80;99.90;;;;;;5015521;28;20052;-75
2023/09/27 03:06:05;;;;;;;9.63;5.53;;;11.80;99.90;;;;;;5035945;28;20029;-76
2023/09/27 03:08:30;;;;;;;10.18;5.22;;;11.80;99.90;;;;;;5036002;28;20021;-76
2023/09/27 03:10:56;;;;;;;6.88;4.20;;;11.80;99.90;;;;;;5018528;28;20021;-76
2023/09/27 03:13:22;;;;;;;5.93;3.83;;;11.80;99.90;;;;;;5001858;28;20033;-76
2023/09/27 03:15:58;;;;;;;6.90;4.60;;;11.80;99.90;;;;;;5036059;28;20084;-76
2023/09/27 03:18:24;;;;;;;7.22;4.63;;;11.80;99.90;;;;;;5001799;28;20033;-76
2023/09/27 03:20:51;;;;;;;7.38;4.47;;;11.80;99.90;;;;;;5018151;28;20057;-76
2023/09/27 03:23:17;;;;;;;6.55;3.63;;;11.70;99.90;;;;;;5018133;28;20029;-76
2023/09/27 03:25:43;;;;;;;5.50;3.70;;;11.70;99.90;;;;;;5017419;28;20600;-76
2023/09/27 03:28:09;;;;;;;7.63;4.20;;;11.70;99.90;;;;;;5003397;28;20052;-76
2023/09/27 03:30:34;;;;;;;5.20;3.65;;;11.70;99.90;;;;;;5019843;28;20044;-76
2023/09/27 03:33:01;;;;;;;7.97;4.40;;;11.70;99.90;;;;;;5030687;28;20473;-77
2023/09/27 03:35:27;;;;;;;8.63;4.22;;;11.70;99.90;;;;;;5013586;28;20041;-77
2023/09/27 03:37:56;;;;;;;7.82;4.03;;;11.70;99.90;;;;;;5001632;28;20140;-76
2023/09/27 03:40:22;;;;;;;6.70;4.00;;;11.70;99.90;;;;;;5018219;28;20108;-76
2023/09/27 03:42:48;;;;;;;6.70;4.07;;;11.70;99.90;;;;;;5001325;28;20053;-76
2023/09/27 03:45:14;;;;;;;6.45;4.28;;;11.70;99.90;;;;;;5035617;28;20048;-76
2023/09/27 03:47:44;;;;;;;6.32;3.67;;;11.70;99.90;;;;;;5017775;28;20026;-77
2023/09/27 03:50:12;;;;;;;7.03;4.22;;;11.60;99.90;;;;;;5000791;28;20025;-76
2023/09/27 03:52:41;;;;;;;7.07;4.00;;;11.70;99.90;;;;;;5035563;28;20097;-76
2023/09/27 03:55:08;;;;;;;5.93;3.80;;;11.60;99.90;;;;;;5017008;28;20057;-76
2023/09/27 03:57:34;;;;;;;8.02;4.03;;;11.60;99.90;;;;;;5016773;28;20033;-77
2023/09/27 04:00:00;;;;;;;7.35;3.90;;;11.60;99.90;;;;;;5016897;28;20116;-76
2023/09/27 04:02:26;;;;;;;8.00;3.70;;;11.60;99.90;;;;;;5000447;28;20068;-76
2023/09/27 04:04:52;;;;;;;6.32;3.97;;;11.60;99.90;;;;;;5016152;28;20021;-76
2023/09/27 04:07:18;;;;;;;8.32;3.75;;;11.60;99.90;;;;;;5016576;28;20036;-76
2023/09/27 04:09:45;;;;;;;8.75;4.43;;;11.60;99.90;;;;;;4984582;28;20026;-76
2023/09/27 04:12:11;;;;;;;7.68;4.45;;;11.60;99.90;;;;;;5034281;28;20469;-77
2023/09/27 04:14:38;;;;;;;7.03;4.07;;;11.60;99.90;;;;;;4998071;28;20120;-76
2023/09/27 04:17:04;;;;;;;8.13;4.07;;;11.60;99.90;;;;;;5014495;28;20581;-77
2023/09/27 04:19:31;;;;;;;6.60;3.85;;;11.60;99.90;;;;;;4997575;28;20026;-77
2023/09/27 04:21:57;;;;;;;8.27;4.25;;;11.60;99.90;;;;;;5032115;28;20026;-77
2023/09/27 04:24:23;;;;;;;9.82;4.53;;;11.60;99.90;;;;;;5015710;28;20032;-76
2023/09/27 04:26:49;;;;;;;8.50;5.07;;;11.60;99.90;;;;;;5038844;28;20014;-76
2023/09/27 04:29:15;;;;;;;6.90;3.53;;;11.60;99.90;;;;;;5015784;28;20033;-76
2023/09/27 04:31:40;;;;;;;6.97;4.03;;;11.60;99.90;;;;;;5033514;28;20042;-76
2023/09/27 04:34:06;;;;;;;8.43;4.40;;;11.60;99.90;;;;;;5033624;28;20057;-76
2023/09/27 04:36:32;;;;;;;6.82;4.05;;;11.60;99.90;;;;;;5033725;28;20044;-76
2023/09/27 04:38:58;;;;;;;5.72;3.60;;;11.60;99.90;;;;;;4983425;28;20607;-77
2023/09/27 04:41:24;;;;;;;6.78;4.00;;;11.50;99.90;;;;;;5016596;28;20063;-76
2023/09/27 04:43:49;;;;;;;5.80;3.67;;;11.50;99.90;;;;;;5016379;28;20033;-76
2023/09/27 04:46:17;;;;;;;7.78;4.18;;;11.50;99.90;;;;;;5016620;28;20503;-76
2023/09/27 04:48:43;;;;;;;6.45;3.80;;;11.60;99.90;;;;;;5033570;28;20022;-76
2023/09/27 04:51:09;;;;;;;7.45;4.32;;;11.60;99.90;;;;;;5016679;28;20072;-76
2023/09/27 04:53:38;;;;;;;6.93;4.47;;;11.50;99.90;;;;;;5034110;28;20033;-76
2023/09/27 04:56:04;;;;;;;5.88;4.03;;;11.50;99.90;;;;;;5016244;28;20029;-75
2023/09/27 04:58:30;;;;;;;6.68;3.90;;;11.50;99.90;;;;;;5033818;28;20021;-76
2023/09/27 05:00:56;;;;;;;6.93;4.40;;;11.50;99.90;;;;;;5016181;28;20500;-76
2023/09/27 05:03:25;;;;;;;6.75;4.10;;;11.50;99.90;;;;;;5033605;28;20034;-75
2023/09/27 05:05:51;;;;;;;8.00;3.67;;;11.50;99.90;;;;;;5033567;28;20025;-75
2023/09/27 05:08:17;;;;;;;7.32;3.88;;;11.50;99.90;;;;;;5033255;28;20026;-76
2023/09/27 05:10:43;;;;;;;5.63;3.25;;;11.50;99.90;;;;;;4999547;28;20030;-75
2023/09/27 05:13:08;;;;;;;6.68;4.00;;;11.50;99.90;;;;;;5016305;28;20025;-76
2023/09/27 05:15:34;;;;;;;4.65;3.30;;;11.50;99.90;;;;;;5033400;28;20028;-75
2023/09/27 05:18:00;;;;;;;4.88;3.17;;;11.50;99.90;;;;;;5033227;28;20091;-76
2023/09/27 05:20:26;;;;;;;4.70;3.08;;;11.50;99.90;;;;;;4999473;28;20040;-76
2023/09/27 05:22:52;;;;;;;4.75;3.08;;;11.50;99.90;;;;;;5033533;28;20049;-76
2023/09/27 05:25:18;;;;;;;5.68;3.45;;;11.50;99.90;;;;;;5018417;28;20497;-75
2023/09/27 05:27:43;;;;;;;5.97;3.90;;;11.50;99.90;;;;;;5036651;28;20477;-75
2023/09/27 05:30:11;;;;;;;6.18;3.45;;;11.50;99.90;;;;;;5018751;28;20035;-76
2023/09/27 05:32:37;;;;;;;8.10;3.65;;;11.50;99.90;;;;;;5036497;28;20027;-75
2023/09/27 05:35:04;;;;;;;7.28;3.78;;;11.50;99.90;;;;;;5018481;28;20037;-76
2023/09/27 05:37:31;;;;;;;6.47;3.88;;;11.50;99.90;;;;;;5018413;28;20531;-76
2023/09/27 05:39:57;;;;;;;8.18;4.47;;;11.50;99.90;;;;;;5018647;28;20033;-75
2023/09/27 05:42:23;;;;;;;7.45;3.97;;;11.50;99.90;;;;;;5036641;28;20033;-76
2023/09/27 05:44:49;;;;;;;9.05;4.20;;;11.50;99.90;;;;;;5036565;28;20096;-76
2023/09/27 05:47:15;;;;;;;8.35;4.15;;;11.50;99.90;;;;;;5036806;28;20350;-76
2023/09/27 05:49:42;;;;;;;7.93;4.38;;;11.50;99.90;;;;;;5036105;28;20025;-77
2023/09/27 05:52:12;;;;;;;6.72;4.03;;;11.60;99.90;;;;;;5019124;28;20441;-76
2023/09/27 05:54:39;;;;;;;6.07;3.95;;;11.60;99.90;;;;;;5003799;28;20033;-76
2023/09/27 05:57:06;;;;;;;6.18;3.60;;;11.70;99.90;;;;;;5019059;28;20053;-77
2023/09/27 05:59:35;;;;;;;8.73;4.75;;;11.70;99.90;;;;;;5035984;28;20482;-76
2023/09/27 06:02:02;;;;;;;7.20;4.32;;;11.70;99.90;;;;;;5018229;28;20113;-76
2023/09/27 06:04:27;;;;;;;7.47;3.65;;;11.70;99.90;;;;;;5017840;28;20519;-76
2023/09/27 06:06:53;;;;;;;6.47;3.80;;;11.80;99.90;;;;;;5035664;28;20033;-75
2023/09/27 06:09:19;;;;;;;7.22;3.72;;;11.80;99.90;;;;;;5035560;28;20030;-76
2023/09/27 06:11:46;;;;;;;12.60;4.55;;;11.80;99.90;;;;;;5017739;28;20083;-76
2023/09/27 06:14:12;;;;;;;11.38;3.90;;;11.90;99.90;;;;;;5001593;28;20025;-76
2023/09/27 06:16:39;;;;;;;9.73;4.90;;;11.90;99.90;;;;;;5035412;28;20033;-75
2023/09/27 06:19:05;;;;;;;7.00;4.10;;;11.90;99.90;;;;;;5035070;28;20025;-76
2023/09/27 06:21:31;;;;;;;5.90;3.47;;;11.90;99.90;;;;;;5035328;28;20037;-76
2023/09/27 06:23:57;;;;;;;7.68;3.55;;;11.90;99.90;;;;;;5017499;28;20032;-75
2023/09/27 06:26:23;;;;;;;8.02;3.70;;;11.90;99.90;;;;;;5017646;28;20029;-75
2023/09/27 06:28:48;;;;;;;6.85;4.10;;;11.90;99.90;;;;;;5035219;28;20429;-76
2023/09/27 06:31:14;;;;;;;8.68;4.63;;;11.80;99.90;;;;;;5035389;28;20073;-76
2023/09/27 06:33:40;;;;;;;7.38;4.07;;;11.90;99.90;;;;;;4997470;28;20029;-76
2023/09/27 06:36:09;;;;;;;7.88;4.60;;;11.90;99.90;;;;;;5014814;28;20386;-76
2023/09/27 06:38:35;;;;;;;7.95;4.70;;;11.90;99.90;;;;;;5015254;28;20504;-76
2023/09/27 06:41:01;;;;;;;13.57;6.10;;;11.90;99.90;;;;;;4997620;28;20045;-76
2023/09/27 06:43:28;;;;;;;8.82;4.88;;;11.90;99.90;;;;;;5015258;28;20026;-76
2023/09/27 06:45:54;;;;;;;12.52;5.68;;;12.00;99.90;;;;;;5015412;28;20104;-75
2023/09/27 06:48:21;;;;;;;14.90;6.40;;;12.00;99.90;;;;;;5015067;28;20054;-76
2023/09/27 06:50:47;;;;;;;8.93;5.10;;;12.00;99.90;;;;;;5014947;28;20429;-76
2023/09/27 06:53:13;;;;;;;10.68;6.05;;;12.00;99.90;;;;;;5015307;28;20025;-76
2023/09/27 06:55:39;;;;;;;9.75;4.57;;;12.00;99.90;;;;;;5015200;28;20026;-76
2023/09/27 06:58:05;;;;;;;11.20;5.63;;;12.00;99.90;;;;;;5014878;28;20030;-76
2023/09/27 07:00:31;;;;;;;13.27;5.35;;;12.10;99.90;;;;;;4997273;28;20037;-76
2023/09/27 07:02:56;;;;;;;8.00;4.93;;;12.10;99.90;;;;;;5008695;28;20029;-76
2023/09/27 07:05:22;;;;;;;10.80;5.40;;;12.10;99.90;;;;;;5000498;28;20079;-76
2023/09/27 07:07:53;;;;;;;10.98;6.22;;;12.20;99.90;;;;;;5015228;28;20028;-76
2023/09/27 07:10:19;;;;;;;7.93;5.40;;;12.20;99.90;;;;;;5032548;28;20024;-76
2023/09/27 07:12:50;;;;;;;6.18;4.65;;;12.20;99.90;;;;;;5033461;28;20116;-76
2023/09/27 07:15:15;;;;;;;8.15;4.68;;;12.30;99.90;;;;;;5015634;28;20076;-76
2023/09/27 07:17:43;;;;;;;12.85;6.45;;;12.30;99.90;;;;;;5033440;28;20033;-76
2023/09/27 07:20:36;;;;;;;11.65;5.75;;;12.30;99.90;;;;;;5033243;28;20029;-76
2023/09/27 07:23:03;;;;;;;7.70;5.00;;;12.40;99.90;;;;;;5019501;28;20042;-75
2023/09/27 07:25:32;;;;;;;9.07;5.65;;;12.40;99.90;;;;;;5017349;28;20064;-75
2023/09/27 07:28:00;;;;;;;11.30;6.80;;;12.40;99.90;;;;;;5035406;28;20056;-78
2023/09/27 07:30:26;;;;;;;13.25;7.57;;;12.40;99.90;;;;;;5037161;28;20037;-78
2023/09/27 07:32:56;;;;;;;16.48;6.75;;;12.40;99.90;;;;;;5037484;28;20031;-78
2023/09/27 07:35:23;;;;;;;12.95;7.80;;;12.40;99.90;;;;;;5037007;28;20040;-78
2023/09/27 07:37:49;;;;;;;11.07;7.03;;;12.40;99.90;;;;;;5037258;28;20031;-78
2023/09/27 07:40:15;;;;;;;10.18;6.72;;;12.40;99.90;;;;;;5036681;28;20109;-78
2023/09/27 07:42:42;;;;;;;11.27;6.90;;;12.30;99.90;;;;;;5037089;28;20544;-78
2023/09/27 07:45:16;;;;;;;10.73;6.40;;;12.30;99.90;;;;;;5037512;28;20044;-78
2023/09/27 07:47:42;;;;;;;11.35;6.65;;;12.40;99.90;;;;;;5037183;28;20021;-78
2023/09/27 07:50:10;;;;;;;10.48;6.68;;;12.50;99.90;;;;;;5037131;28;20025;-78
2023/09/27 07:52:36;;;;;;;8.75;5.70;;;12.50;99.90;;;;;;5038043;28;20377;-78
2023/09/27 07:55:04;;;;;;;11.32;7.50;;;12.50;99.90;;;;;;5039159;28;20381;-78
2023/09/27 07:57:30;;;;;;;11.13;6.93;;;12.60;99.90;;;;;;5038805;28;20048;-78
2023/09/27 07:59:55;;;;;;;9.13;5.97;;;12.70;99.90;;;;;;5020644;28;20037;-78
2023/09/27 08:02:21;;;;;;;11.30;7.45;;;12.70;99.90;;;;;;5039103;28;20021;-78
2023/09/27 08:04:49;;;;;;;12.57;7.25;;;12.80;99.90;;;;;;5038601;28;20085;-78
2023/09/27 08:07:15;;;;;;;10.65;6.72;;;12.90;99.90;;;;;;5038822;28;20017;-78
2023/09/27 08:09:42;;;;;;;9.25;6.05;;;12.90;99.90;;;;;;5038947;28;20074;-78
2023/09/27 08:12:08;;;;;;;12.60;7.30;;;13.00;99.90;;;;;;5026220;28;20018;-78
2023/09/27 08:14:36;;;;;;;13.63;7.60;;;13.00;99.90;;;;;;5016125;28;20033;-78
2023/09/27 08:17:02;;;;;;;10.07;6.70;;;13.00;99.90;;;;;;5018379;28;20025;-78
2023/09/27 08:19:29;;;;;;;11.13;6.72;;;13.10;99.90;;;;;;5018811;28;20026;-79
2023/09/27 08:21:56;;;;;;;13.20;6.30;;;13.10;99.90;;;;;;5018264;28;20501;-78
2023/09/27 08:24:22;;;;;;;13.35;8.27;;;13.20;99.90;;;;;;5019629;28;20034;-79
2023/09/27 08:26:48;;;;;;;12.23;7.80;;;13.20;99.90;;;;;;4997466;28;20022;-81
2023/09/27 08:29:13;;;;;;;12.02;6.82;;;13.30;99.90;;;;;;5017484;28;20486;-79
2023/09/27 08:31:40;;;;;;;12.25;7.97;;;13.40;99.90;;;;;;5018303;28;20057;-78
2023/09/27 08:34:06;;;;;;;9.85;6.47;;;13.40;99.90;;;;;;5020515;28;20424;-80
2023/09/27 08:36:31;;;;;;;14.77;8.60;;;13.50;99.90;;;;;;5039024;28;20057;-79
2023/09/27 08:38:57;;;;;;;15.02;8.95;;;13.50;99.90;;;;;;5038784;28;20473;-79
2023/09/27 08:41:28;;;;;;;13.68;8.43;;;13.60;99.90;;;;;;5021565;28;20049;-80
2023/09/27 08:43:56;;;;;;;9.52;7.00;;;13.70;99.90;;;;;;5038528;28;20030;-79
2023/09/27 08:46:23;;;;;;;14.80;8.70;;;13.90;99.90;;;;;;5038339;28;20041;-80
2023/09/27 08:48:51;;;;;;;16.58;8.30;;;14.00;99.90;;;;;;5037582;28;20037;-79
2023/09/27 08:51:17;;;;;;;11.48;7.35;;;14.20;99.90;;;;;;5038218;28;20105;-80
2023/09/27 08:53:43;;;;;;;13.57;8.48;;;14.30;99.90;;;;;;5039019;28;20188;-80
2023/09/27 08:56:12;;;;;;;12.23;8.02;;;14.40;99.90;;;;;;5038983;28;20029;-80
2023/09/27 08:58:39;;;;;;;10.50;6.97;;;14.60;99.90;;;;;;5039061;28;20429;-79
2023/09/27 09:01:09;;;;;;;9.80;6.30;;;14.70;99.90;;;;;;5043676;28;20025;-79
2023/09/27 09:03:36;;;;;;;8.63;6.15;;;14.80;99.90;;;;;;5042721;28;20044;-80
2023/09/27 09:06:04;;;;;;;9.10;6.15;;;14.90;99.90;;;;;;5042246;28;20028;-80
2023/09/27 09:08:30;;;;;;;10.38;5.78;;;15.00;99.90;;;;;;5041381;28;20028;-79
2023/09/27 09:10:56;;;;;;;7.20;4.60;;;15.20;99.90;;;;;;5041976;28;20026;-79
2023/09/27 09:13:22;;;;;;;9.77;6.00;;;15.30;99.90;;;;;;5042608;28;20458;-79
2023/09/27 09:15:49;;;;;;;13.65;6.63;;;15.40;99.90;;;;;;5041502;28;20169;-78
2023/09/27 09:18:33;;;;;;;8.73;5.53;;;15.50;99.90;;;;;;5043368;28;20033;-80
2023/09/27 09:21:08;;;;;;;9.55;5.32;;;15.60;99.90;;;;;;5043220;28;20029;-79
2023/09/27 09:23:35;;;;;;;8.93;5.30;;;15.70;99.90;;;;;;5025583;28;20401;-79
2023/09/27 09:26:05;;;;;;;7.55;5.25;;;15.80;99.90;;;;;;5043560;28;20029;-79
2023/09/27 09:28:31;;;;;;;9.95;5.70;;;15.90;99.90;;;;;;5042918;28;20037;-79
2023/09/27 09:30:57;;;;;;;8.93;4.90;;;16.10;99.90;;;;;;5043058;28;20399;-79
2023/09/27 09:33:24;;;;;;;12.35;4.97;;;16.20;99.90;;;;;;5042804;28;20064;-79
2023/09/27 09:35:51;;;;;;;10.95;5.10;;;16.30;99.90;;;;;;5042742;28;20034;-80
2023/09/27 09:38:31;;;;;;;6.82;4.50;;;16.50;99.90;;;;;;5043040;28;20032;-80
2023/09/27 09:41:00;;;;;;;8.25;4.38;;;16.60;99.90;;;;;;5042502;28;20465;-79
2023/09/27 09:43:29;;;;;;;11.20;4.30;;;16.70;99.90;;;;;;5042150;28;20025;-79
2023/09/27 09:45:55;;;;;;;7.00;3.70;;;16.90;99.90;;;;;;5042475;28;20026;-79
2023/09/27 09:48:23;;;;;;;7.40;4.20;;;17.00;99.90;;;;;;5042198;28;20036;-79
2023/09/27 09:50:49;;;;;;;7.72;4.28;;;17.20;99.90;;;;;;5042098;28;20017;-79
2023/09/27 09:53:16;;;;;;;6.47;4.00;;;17.30;99.90;;;;;;5042920;28;20049;-79
2023/09/27 09:55:46;;;;;;;6.18;4.00;;;17.40;99.90;;;;;;5041953;28;20493;-80
2023/09/27 09:58:26;;;;;;;8.57;3.70;;;17.60;99.90;;;;;;5042452;28;20487;-80
2023/09/27 10:00:54;;;;;;;5.97;3.87;;;17.80;99.90;;;;;;5042522;28;20071;-80
2023/09/27 10:03:30;;;;;;;7.43;4.05;;;17.90;99.90;;;;;;5042324;28;20033;-79
2023/09/27 10:05:56;;;;;;;7.15;4.10;;;18.00;99.90;;;;;;5042238;28;20044;-80
2023/09/27 10:08:25;;;;;;;7.18;3.90;;;18.20;99.90;;;;;;5042643;28;20057;-80
2023/09/27 10:10:50;;;;;;;9.73;4.32;;;18.30;99.90;;;;;;5041548;28;20025;-80
2023/09/27 10:13:18;;;;;;;9.80;4.13;;;18.40;99.90;;;;;;5042396;28;20080;-79
2023/09/27 10:15:44;;;;;;;6.45;3.95;;;18.50;99.90;;;;;;5042451;28;20064;-80
2023/09/27 10:18:22;;;;;;;8.50;4.80;;;18.70;99.90;;;;;;5042674;28;20030;-80
2023/09/27 10:21:03;;;;;;;7.90;5.18;;;18.80;99.90;;;;;;5042257;28;20029;-80
2023/09/27 10:23:38;;;;;;;6.43;4.15;;;19.00;99.90;;;;;;5045405;28;20021;-80
2023/09/27 10:26:17;;;;;;;9.48;5.60;;;19.10;99.90;;;;;;5032336;28;20036;-79
2023/09/27 10:29:04;;;;;;;9.20;5.53;;;19.30;99.90;;;;;;5044413;28;20018;-80
2023/09/27 10:31:31;;;;;;;8.65;4.50;;;19.40;99.90;;;;;;5042737;28;20037;-79
2023/09/27 10:33:56;;;;;;;10.30;5.20;;;19.50;99.90;;;;;;5041401;28;20389;-79
2023/09/27 10:36:22;;;;;;;10.85;4.65;;;19.60;99.90;;;;;;5042027;28;20029;-80
2023/09/27 10:38:50;;;;;;;7.75;4.43;;;19.60;99.90;;;;;;5041412;28;20104;-79
2023/09/27 10:41:31;;;;;;;6.57;4.35;;;19.70;99.90;;;;;;5041094;28;20030;-80
2023/09/27 10:43:58;;;;;;;7.57;4.43;;;19.80;99.90;;;;;;5023384;28;20025;-80
2023/09/27 10:46:24;;;;;;;9.95;4.75;;;19.90;99.90;;;;;;5041081;28;20112;-80
2023/09/27 10:49:00;;;;;;;7.38;4.10;;;20.00;99.90;;;;;;5040826;28;20045;-80
2023/09/27 10:51:26;;;;;;;8.57;4.50;;;20.00;99.90;;;;;;5041464;28;20025;-80
2023/09/27 10:53:55;;;;;;;10.52;4.93;;;20.20;99.90;;;;;;5040977;28;20080;-80
2023/09/27 10:56:20;;;;;;;10.85;4.55;;;20.30;99.90;;;;;;5041127;28;20033;-80
2023/09/27 10:58:49;;;;;;;10.23;4.57;;;20.40;99.90;;;;;;5040750;28;20073;-80
2023/09/27 11:01:23;;;;;;;8.27;4.00;;;20.50;99.90;;;;;;5041028;28;20032;-80
2023/09/27 11:03:57;;;;;;;5.53;4.10;;;20.60;99.90;;;;;;5040145;28;20085;-80
2023/09/27 11:06:23;;;;;;;9.65;4.30;;;20.70;99.90;;;;;;5041222;28;20350;-80
2023/09/27 11:08:49;;;;;;;7.80;4.25;;;20.80;99.90;;;;;;5040798;28;20032;-80
2023/09/27 11:11:15;;;;;;;10.15;4.32;;;20.90;99.90;;;;;;5040588;28;20049;-79
2023/09/27 11:13:45;;;;;;;7.07;4.28;;;21.00;99.90;;;;;;5022986;28;20592;-80
2023/09/27 11:16:15;;;;;;;7.80;4.35;;;21.10;99.90;;;;;;5041100;28;20052;-80
2023/09/27 11:18:45;;;;;;;8.63;3.97;;;21.20;99.90;;;;;;5022940;28;20025;-80
2023/09/27 11:21:15;;;;;;;7.25;3.75;;;21.30;99.90;;;;;;5022829;28;20321;-79
2023/09/27 11:24:12;;;;;;;9.10;3.75;;;21.40;99.90;;;;;;5040921;28;20474;-80
2023/09/27 11:26:42;;;;;;;8.85;3.67;;;21.50;99.90;;;;;;5040786;28;20051;-80
2023/09/27 11:29:08;;;;;;;7.53;3.17;;;21.60;99.90;;;;;;5040520;28;20025;-80
2023/09/27 11:31:35;;;;;;;8.18;3.20;;;21.70;99.90;;;;;;5040668;28;20040;-80
2023/09/27 11:34:12;;;;;;;7.38;3.17;;;21.80;99.90;;;;;;5040397;28;20630;-80
2023/09/27 11:36:40;;;;;;;4.65;3.03;;;21.80;99.90;;;;;;5006873;28;20041;-80
2023/09/27 11:39:06;;;;;;;5.60;3.20;;;22.00;99.90;;;;;;5040919;28;20025;-80
2023/09/27 11:41:32;;;;;;;5.18;3.28;;;22.10;99.90;;;;;;5028713;28;20101;-79
2023/09/27 11:43:58;;;;;;;6.25;3.25;;;22.20;99.90;;;;;;5029717;28;20065;-79
2023/09/27 11:46:27;;;;;;;8.93;3.25;;;22.30;99.90;;;;;;5010681;28;20030;-80
2023/09/27 11:48:53;;;;;;;6.10;3.60;;;22.40;99.90;;;;;;5025519;28;20112;-79
2023/09/27 11:51:19;;;;;;;9.02;3.20;;;22.50;99.90;;;;;;5008473;28;20054;-79
2023/09/27 11:53:45;;;;;;;4.15;3.05;;;22.60;99.90;;;;;;5021965;28;20030;-79
2023/09/27 11:56:12;;;;;;;6.07;3.00;;;22.80;99.90;;;;;;5031868;28;20037;-79
2023/09/27 11:58:37;;;;;;;6.80;3.25;;;22.80;99.90;;;;;;5040422;28;20022;-79
2023/09/27 12:01:05;;;;;;;7.22;3.08;;;22.90;99.90;;;;;;5037526;28;20057;-79
2023/09/27 12:03:31;;;;;;;4.97;3.22;;;22.90;99.90;;;;;;5039802;28;20092;-79
2023/09/27 12:05:56;;;;;;;6.55;3.40;;;23.00;99.90;;;;;;5038066;28;20052;-79
2023/09/27 12:08:22;;;;;;;6.20;2.95;;;23.10;99.90;;;;;;5039269;28;20448;-79
2023/09/27 12:10:48;;;;;;;7.40;3.38;;;23.20;99.90;;;;;;5015599;28;20404;-79
2023/09/27 12:13:14;;;;;;;6.28;3.40;;;23.40;99.90;;;;;;5035030;28;20063;-79
2023/09/27 12:15:40;;;;;;;6.00;2.95;;;23.40;99.90;;;;;;5038327;28;20492;-79
2023/09/27 12:18:06;;;;;;;6.50;3.28;;;23.50;99.90;;;;;;5038384;28;20057;-79
2023/09/27 12:20:32;;;;;;;4.72;2.70;;;23.50;99.90;;;;;;5038711;28;20103;-79
2023/09/27 12:22:58;;;;;;;5.55;3.25;;;23.60;99.90;;;;;;5038863;28;20028;-79
2023/09/27 12:25:23;;;;;;;6.28;2.92;;;23.60;99.90;;;;;;5039440;28;20096;-79
2023/09/27 12:27:49;;;;;;;5.80;3.72;;;23.70;99.90;;;;;;5039110;28;20060;-79
2023/09/27 12:30:15;;;;;;;5.97;3.08;;;23.80;99.90;;;;;;5038599;28;20085;-79
2023/09/27 12:32:40;;;;;;;10.68;3.42;;;23.90;99.90;;;;;;5036432;28;20034;-79
2023/09/27 12:35:06;;;;;;;5.25;2.75;;;23.90;99.90;;;;;;5041837;28;20057;-79
2023/09/27 12:37:32;;;;;;;6.60;2.90;;;24.00;99.90;;;;;;5042517;28;20021;-79
2023/09/27 12:39:58;;;;;;;4.90;2.85;;;24.10;99.90;;;;;;5040013;28;20040;-79
2023/09/27 12:42:23;;;;;;;5.70;2.80;;;24.20;99.90;;;;;;5042279;28;20040;-79
2023/09/27 12:44:49;;;;;;;5.43;2.92;;;24.30;99.90;;;;;;5042617;28;20440;-79